Time;durP1;ratioP1;P1;durP2;ratioP2;P2;SDS_P1;SDS_P2;PMS_P1;PMS_P2;Temp;Humidity;BMP_temperature;BMP_pressure;BME280_temperature;BME280_humidity;BME280_pressure;Samples;Min_cycle;Max_cycle;Signal;HPM_P1;HPM_P2
2022/12/24 00:00:13;;;;;;;;;;;;;;;18.79;63.71;98625.56;2075812;28;19925;-75
2022/12/24 00:01:15;;;;;;;;;;;;;;;18.79;63.73;98614.81;2076187;28;23028;-76
2022/12/24 00:02:15;;;;;;;;;;;;;;;18.73;63.82;98608.38;2074680;28;21647;-75
2022/12/24 00:03:17;;;;;;;;;;;;;;;18.77;63.72;98608.00;2069997;28;19925;-76
2022/12/24 00:04:17;;;;;;;;;;;;;;;18.77;63.85;98594.56;2075709;28;20569;-76
2022/12/24 00:05:19;;;;;;;;;;;;;;;18.77;63.71;98590.00;2072329;28;19928;-75
2022/12/24 00:06:20;;;;;;;;;;;;;;;18.76;63.84;98574.94;2078665;28;20035;-76
2022/12/24 00:07:22;;;;;;;;;;;;;;;18.75;63.62;98578.66;2076465;28;19929;-75
2022/12/24 00:08:23;;;;;;;;;;;;;;;18.75;63.90;98584.03;2074143;28;19929;-76
2022/12/24 00:09:26;;;;;;;;;;;;;;;18.75;63.58;98584.03;2074236;28;19929;-76
2022/12/24 00:10:26;;;;;;;;;;;;;;;18.74;63.77;98593.13;2075201;28;20547;-76
2022/12/24 00:11:28;;;;;;;;;;;;;;;18.72;64.10;98582.56;2077538;28;19932;-76
2022/12/24 00:12:28;;;;;;;;;;;;;;;18.72;63.91;98598.69;2079782;28;19924;-75
2022/12/24 00:13:30;;;;;;;;;;;;;;;18.71;63.72;98596.19;2072527;28;20349;-76
2022/12/24 00:14:30;;;;;;;;;;;;;;;18.71;63.96;98604.25;2078402;28;19924;-76
2022/12/24 00:15:32;;;;;;;;;;;;;;;18.72;63.89;98601.38;2078364;28;19932;-76
2022/12/24 00:16:33;;;;;;;;;;;;;;;18.68;63.84;98602.78;2074267;28;19974;-76
2022/12/24 00:17:34;;;;;;;;;;;;;;;18.70;63.66;98606.09;2076741;28;19935;-75
2022/12/24 00:18:35;;;;;;;;;;;;;;;18.67;63.79;98606.53;2075086;28;20424;-75
2022/12/24 00:19:35;;;;;;;;;;;;;;;18.67;64.04;98603.84;2072792;28;19924;-75
2022/12/24 00:20:37;;;;;;;;;;;;;;;18.67;63.71;98601.16;2077404;28;20037;-76
2022/12/24 00:21:38;;;;;;;;;;;;;;;18.64;63.84;98606.94;2076698;28;19982;-75
2022/12/24 00:22:39;;;;;;;;;;;;;;;18.65;64.14;98602.38;2078470;28;19990;-75
2022/12/24 00:23:40;;;;;;;;;;;;;;;18.62;63.91;98589.38;2074668;28;20718;-76
2022/12/24 00:24:43;;;;;;;;;;;;;;;18.63;63.86;98588.31;2075263;28;19936;-75
2022/12/24 00:25:43;;;;;;;;;;;;;;;18.61;63.89;98576.94;2069026;28;19925;-75
2022/12/24 00:26:45;;;;;;;;;;;;;;;18.58;63.91;98570.13;2079916;28;19924;-75
2022/12/24 00:27:45;;;;;;;;;;;;;;;18.59;63.80;98568.28;2076756;28;19932;-75
2022/12/24 00:28:47;;;;;;;;;;;;;;;18.58;64.16;98567.44;2079941;28;20122;-75
2022/12/24 00:29:47;;;;;;;;;;;;;;;18.58;63.96;98562.06;2079218;28;19925;-75
2022/12/24 00:30:49;;;;;;;;;;;;;;;18.58;63.95;98550.50;2074184;28;19928;-76
2022/12/24 00:31:49;;;;;;;;;;;;;;;18.57;64.20;98540.78;2073842;28;19928;-76
2022/12/24 00:32:51;;;;;;;;;;;;;;;18.57;64.11;98546.16;2076242;28;19931;-75
2022/12/24 00:33:51;;;;;;;;;;;;;;;18.58;64.14;98535.19;2077739;28;19924;-76
2022/12/24 00:34:53;;;;;;;;;;;;;;;18.56;63.94;98544.53;2072596;28;20019;-75
2022/12/24 00:35:53;;;;;;;;;;;;;;;18.56;63.93;98553.41;2075164;28;20480;-76
2022/12/24 00:36:55;;;;;;;;;;;;;;;18.56;63.80;98563.31;2077597;28;19928;-75
2022/12/24 00:37:55;;;;;;;;;;;;;;;18.55;63.91;98578.59;2080579;28;20605;-75
2022/12/24 00:38:57;;;;;;;;;;;;;;;18.54;64.10;98590.38;2076596;28;19928;-76
2022/12/24 00:39:59;;;;;;;;;;;;;;;18.53;64.36;98597.63;2075205;28;19925;-75
2022/12/24 00:41:01;;;;;;;;;;;;;;;18.52;64.15;98590.56;2072145;28;20644;-76
2022/12/24 00:42:01;;;;;;;;;;;;;;;18.53;64.12;98584.19;2077004;28;19925;-76
2022/12/24 00:43:02;;;;;;;;;;;;;;;18.51;64.22;98572.81;2077939;28;21082;-75
2022/12/24 00:44:04;;;;;;;;;;;;;;;18.51;64.13;98570.13;2072935;28;19928;-76
2022/12/24 00:45:06;;;;;;;;;;;;;;;18.49;64.13;98566.81;2076658;28;19925;-76
2022/12/24 00:46:07;;;;;;;;;;;;;;;18.50;64.19;98570.34;2073737;28;19925;-76
2022/12/24 00:47:08;;;;;;;;;;;;;;;18.49;64.04;98569.50;2073169;28;21493;-75
2022/12/24 00:48:09;;;;;;;;;;;;;;;18.49;64.27;98563.31;2074166;28;21677;-76
2022/12/24 00:49:12;;;;;;;;;;;;;;;18.47;64.02;98565.34;2071643;28;19940;-75
2022/12/24 00:50:12;;;;;;;;;;;;;;;18.47;64.10;98555.47;2070259;28;20576;-75
2022/12/24 00:51:14;;;;;;;;;;;;;;;18.47;63.98;98559.97;2072577;28;19924;-75
2022/12/24 00:52:14;;;;;;;;;;;;;;;18.46;64.05;98567.22;2075045;28;19990;-75
2022/12/24 00:53:16;;;;;;;;;;;;;;;18.47;64.04;98570.72;2079166;28;19933;-75
2022/12/24 00:54:16;;;;;;;;;;;;;;;18.49;63.95;98580.22;2074778;28;19929;-75
2022/12/24 00:55:19;;;;;;;;;;;;;;;18.46;64.02;98579.81;2074811;28;19924;-75
2022/12/24 00:56:20;;;;;;;;;;;;;;;18.46;64.07;98586.00;2077934;28;19935;-75
2022/12/24 00:57:21;;;;;;;;;;;;;;;18.44;64.15;98590.78;2072824;28;20004;-76
2022/12/24 00:58:22;;;;;;;;;;;;;;;18.42;64.17;98594.72;2078800;28;20491;-76
2022/12/24 00:59:23;;;;;;;;;;;;;;;18.44;64.29;98598.00;2075615;28;20002;-75
2022/12/24 01:00:24;;;;;;;;;;;;;;;18.43;64.18;98590.97;2074571;28;19977;-75
2022/12/24 01:01:25;;;;;;;;;;;;;;;18.41;64.34;98591.16;2069726;28;21081;-76
2022/12/24 01:02:26;;;;;;;;;;;;;;;18.40;64.16;98596.75;2072283;28;19928;-75
2022/12/24 01:03:34;;;;;;;;;;;;;;;18.40;64.34;98592.22;2069090;28;19927;-76
2022/12/24 01:05:53;;;;;;;;;;;;;;;18.40;64.48;98591.38;2073973;28;20578;-75
2022/12/24 01:06:56;;;;;;;;;;;;;;;18.36;64.54;98596.34;2073821;28;19924;-75
2022/12/24 01:07:56;;;;;;;;;;;;;;;18.38;63.97;98594.25;2064732;28;19956;-76
2022/12/24 01:08:58;;;;;;;;;;;;;;;18.39;64.37;98604.00;2072142;28;20313;-75
2022/12/24 01:09:58;;;;;;;;;;;;;;;18.38;64.13;98598.81;2075035;28;19928;-75
2022/12/24 01:11:01;;;;;;;;;;;;;;;18.37;64.09;98598.00;2077305;28;20470;-75
2022/12/24 01:12:02;;;;;;;;;;;;;;;18.37;64.13;98592.63;2072251;28;19932;-75
2022/12/24 01:13:03;;;;;;;;;;;;;;;18.37;64.11;98589.94;2078667;28;19932;-76
2022/12/24 01:14:04;;;;;;;;;;;;;;;18.35;64.21;98589.28;2076420;28;20442;-75
2022/12/24 01:15:05;;;;;;;;;;;;;;;18.35;64.47;98583.09;2073877;28;19999;-75
2022/12/24 01:16:12;;;;;;;;;;;;;;;18.36;64.11;98595.50;2073481;28;19924;-75
2022/12/24 01:17:14;;;;;;;;;;;;;;;18.35;64.15;98594.66;2078665;28;20086;-75
2022/12/24 01:18:15;;;;;;;;;;;;;;;18.34;64.43;98598.41;2077527;28;19931;-75
2022/12/24 01:19:16;;;;;;;;;;;;;;;18.34;64.06;98603.75;2076502;28;19931;-75
2022/12/24 01:20:17;;;;;;;;;;;;;;;18.33;64.37;98618.22;2070968;28;20036;-76
2022/12/24 01:21:19;;;;;;;;;;;;;;;18.32;64.55;98624.63;2077833;28;20015;-75
2022/12/24 01:22:19;;;;;;;;;;;;;;;18.31;64.55;98628.34;2077016;28;19925;-76
2022/12/24 01:23:21;;;;;;;;;;;;;;;18.31;64.19;98633.72;2074182;28;20972;-75
2022/12/24 01:24:21;;;;;;;;;;;;;;;18.31;64.33;98636.38;2074593;28;19935;-75
2022/12/24 01:25:22;;;;;;;;;;;;;;;18.30;64.48;98645.47;2078395;28;19927;-75
2022/12/24 01:26:24;;;;;;;;;;;;;;;18.31;64.41;98639.91;2073666;28;19924;-75
2022/12/24 01:27:26;;;;;;;;;;;;;;;18.29;64.38;98633.91;2075243;28;20172;-75
2022/12/24 01:28:27;;;;;;;;;;;;;;;18.29;64.14;98636.59;2077770;28;20376;-75
2022/12/24 01:29:29;;;;;;;;;;;;;;;18.30;64.04;98640.09;2073433;28;19929;-75
2022/12/24 01:30:29;;;;;;;;;;;;;;;18.28;64.57;98634.13;2074426;28;20002;-75
2022/12/24 01:31:31;;;;;;;;;;;;;;;18.29;64.19;98630.38;2078736;28;20336;-76
2022/12/24 01:32:31;;;;;;;;;;;;;;;18.29;64.42;98625.03;2073404;28;19928;-75
2022/12/24 01:33:33;;;;;;;;;;;;;;;18.30;64.37;98622.16;2079812;28;19925;-76
2022/12/24 01:34:33;;;;;;;;;;;;;;;18.27;64.44;98616.34;2078454;28;19974;-75
2022/12/24 01:35:35;;;;;;;;;;;;;;;18.26;64.36;98614.69;2077500;28;20336;-76
2022/12/24 01:36:36;;;;;;;;;;;;;;;18.26;64.18;98618.19;2076807;28;19921;-75
2022/12/24 01:37:37;;;;;;;;;;;;;;;18.25;64.22;98621.09;2073858;28;20015;-75
2022/12/24 01:38:38;;;;;;;;;;;;;;;18.25;64.38;98627.28;2075570;28;19935;-75
2022/12/24 01:39:39;;;;;;;;;;;;;;;18.26;64.22;98628.94;2075883;28;19921;-75
2022/12/24 01:43:24;;;;;;;;;;;;;;;18.23;64.39;98626.66;2074997;28;20386;-75
2022/12/24 01:44:25;;;;;;;;;;;;;;;18.23;64.50;98620.47;2076088;28;20066;-75
2022/12/24 01:45:41;;;;;;;;;;;;;;;18.23;64.39;98621.28;2074190;28;19951;-76
2022/12/24 01:46:43;;;;;;;;;;;;;;;18.22;64.19;98619.63;2074041;28;19927;-75
2022/12/24 01:47:44;;;;;;;;;;;;;;;18.21;64.50;98617.13;2076130;28;20322;-75
2022/12/24 01:48:47;;;;;;;;;;;;;;;18.20;64.39;98612.81;2075084;28;19929;-75
2022/12/24 01:49:50;;;;;;;;;;;;;;;18.19;64.10;98605.78;2075652;28;19989;-75
2022/12/24 01:50:56;;;;;;;;;;;;;;;18.19;64.24;98606.63;2079138;28;19925;-75
2022/12/24 01:52:00;;;;;;;;;;;;;;;18.19;64.36;98609.31;2075801;28;20374;-75
2022/12/24 01:53:02;;;;;;;;;;;;;;;18.19;64.51;98603.09;2081702;28;20019;-75
2022/12/24 01:54:04;;;;;;;;;;;;;;;18.18;64.22;98607.63;2079697;28;19928;-75
2022/12/24 01:55:07;;;;;;;;;;;;;;;18.18;64.22;98602.25;2080851;28;19971;-75
2022/12/24 01:56:10;;;;;;;;;;;;;;;18.18;64.26;98593.38;2081609;28;19978;-75
2022/12/24 01:57:15;;;;;;;;;;;;;;;18.18;64.55;98593.38;2076892;28;19928;-75
2022/12/24 01:58:17;;;;;;;;;;;;;;;18.16;64.15;98590.06;2073267;28;20015;-75
2022/12/24 01:59:19;;;;;;;;;;;;;;;18.15;64.35;98589.25;2078596;28;20416;-75
2022/12/24 02:00:20;;;;;;;;;;;;;;;18.16;64.24;98592.75;2077631;28;20317;-75
2022/12/24 02:01:21;;;;;;;;;;;;;;;18.15;64.15;98593.78;2074876;28;19971;-75
2022/12/24 02:02:22;;;;;;;;;;;;;;;18.15;64.35;98599.16;2075088;28;19925;-75
2022/12/24 02:03:24;;;;;;;;;;;;;;;18.12;64.59;98605.75;2077415;28;19929;-76
2022/12/24 02:04:29;;;;;;;;;;;;;;;18.11;64.33;98608.63;2079008;28;20450;-75
2022/12/24 02:05:34;;;;;;;;;;;;;;;18.12;64.51;98615.66;2079044;28;20296;-75
2022/12/24 02:06:35;;;;;;;;;;;;;;;18.12;64.70;98615.66;2074917;28;19925;-75
2022/12/24 02:07:37;;;;;;;;;;;;;;;18.09;64.43;98615.03;2079069;28;20568;-75
2022/12/24 02:08:40;;;;;;;;;;;;;;;18.11;64.60;98616.69;2075818;28;19921;-75
2022/12/24 02:09:42;;;;;;;;;;;;;;;18.07;64.79;98610.91;2079493;28;20023;-75
2022/12/24 02:10:45;;;;;;;;;;;;;;;18.08;64.45;98613.41;2077823;28;19932;-75
2022/12/24 02:11:46;;;;;;;;;;;;;;;18.06;64.83;98618.13;2079626;28;20604;-74
2022/12/24 02:12:49;;;;;;;;;;;;;;;18.07;64.57;98625.13;2077781;28;19951;-75
2022/12/24 02:13:51;;;;;;;;;;;;;;;18.07;64.58;98629.69;2079225;28;19929;-75
2022/12/24 02:14:52;;;;;;;;;;;;;;;18.06;64.71;98628.84;2078082;28;19925;-75
2022/12/24 02:16:00;;;;;;;;;;;;;;;18.06;64.37;98628.84;2079142;28;19958;-76
2022/12/24 02:17:03;;;;;;;;;;;;;;;18.07;64.34;98630.50;2077100;28;19974;-75
2022/12/24 02:18:07;;;;;;;;;;;;;;;18.06;64.30;98634.22;2082328;28;19968;-75
2022/12/24 02:19:14;;;;;;;;;;;;;;;18.04;64.68;98633.59;2077805;28;19974;-75
2022/12/24 02:20:36;;;;;;;;;;;;;;;18.03;64.54;98629.25;2077719;28;20334;-75
2022/12/24 02:21:45;;;;;;;;;;;;;;;18.04;64.85;98624.72;2079818;28;19921;-76
2022/12/24 02:22:57;;;;;;;;;;;;;;;18.04;64.56;98616.66;2075730;28;20332;-75
2022/12/24 02:24:05;;;;;;;;;;;;;;;18.02;64.62;98602.59;2076034;28;20444;-75
2022/12/24 02:25:24;;;;;;;;;;;;;;;18.00;64.51;98602.81;2078704;28;19932;-75
2022/12/24 02:26:30;;;;;;;;;;;;;;;18.00;64.49;98615.44;2080798;28;19938;-75
2022/12/24 02:27:38;;;;;;;;;;;;;;;18.00;64.56;98621.63;2079361;28;19925;-76
2022/12/24 02:28:55;;;;;;;;;;;;;;;18.01;64.77;98625.13;2080031;28;19931;-75
2022/12/24 02:30:09;;;;;;;;;;;;;;;18.00;64.70;98632.34;2073539;28;19939;-76
2022/12/24 02:31:12;;;;;;;;;;;;;;;17.99;64.57;98637.91;2078904;28;19927;-75
2022/12/24 02:32:17;;;;;;;;;;;;;;;17.99;64.70;98627.16;2079723;28;19924;-75
2022/12/24 02:33:23;;;;;;;;;;;;;;;17.99;64.56;98627.16;2078536;28;19924;-75
2022/12/24 02:34:27;;;;;;;;;;;;;;;17.98;64.46;98626.34;2076156;28;20351;-75
2022/12/24 02:35:34;;;;;;;;;;;;;;;17.98;64.62;98631.72;2076421;28;20048;-75
2022/12/24 02:36:40;;;;;;;;;;;;;;;17.98;64.65;98631.72;2079374;28;20014;-75
2022/12/24 02:37:43;;;;;;;;;;;;;;;17.99;64.71;98628.00;2079196;28;19925;-75
2022/12/24 02:38:48;;;;;;;;;;;;;;;17.97;64.68;98627.38;2078042;28;19982;-75
2022/12/24 02:39:51;;;;;;;;;;;;;;;17.95;64.76;98626.75;2076520;28;19935;-75
2022/12/24 02:40:55;;;;;;;;;;;;;;;17.95;64.59;98629.44;2076939;28;20328;-75
2022/12/24 02:42:06;;;;;;;;;;;;;;;17.95;64.58;98625.94;2078818;28;20382;-75
2022/12/24 02:43:11;;;;;;;;;;;;;;;17.96;64.42;98631.06;2076448;28;19925;-75
2022/12/24 02:44:11;;;;;;;;;;;;;;;17.97;64.47;98618.47;2081190;28;19977;-76
2022/12/24 02:45:16;;;;;;;;;;;;;;;17.97;64.40;98623.84;2079100;28;19978;-75
2022/12/24 02:46:18;;;;;;;;;;;;;;;17.94;64.59;98617.06;2073877;28;19921;-76
2022/12/24 02:47:21;;;;;;;;;;;;;;;17.94;64.52;98621.56;2073228;28;19925;-75
2022/12/24 02:48:23;;;;;;;;;;;;;;;17.94;64.60;98618.88;2076424;28;20477;-75
2022/12/24 02:49:25;;;;;;;;;;;;;;;17.92;64.70;98616.41;2075698;28;19932;-75
2022/12/24 02:50:25;;;;;;;;;;;;;;;17.92;64.81;98615.59;2076165;28;19994;-75
2022/12/24 02:51:27;;;;;;;;;;;;;;;17.90;64.83;98606.91;2075261;28;19921;-75
2022/12/24 02:52:28;;;;;;;;;;;;;;;17.90;64.64;98605.03;2080917;28;19920;-75
2022/12/24 02:53:30;;;;;;;;;;;;;;;17.90;64.68;98597.00;2077217;28;19956;-75
2022/12/24 02:54:31;;;;;;;;;;;;;;;17.92;64.69;98599.50;2073149;28;19929;-75
2022/12/24 02:55:39;;;;;;;;;;;;;;;17.92;64.68;98597.63;2079600;28;21094;-75
2022/12/24 02:56:49;;;;;;;;;;;;;;;17.91;64.63;98595.97;2077544;28;19921;-75
2022/12/24 02:57:59;;;;;;;;;;;;;;;17.90;64.58;98599.69;2077802;28;19928;-76
2022/12/24 02:59:11;;;;;;;;;;;;;;;17.91;64.48;98598.63;2078345;28;19925;-75
2022/12/24 03:00:14;;;;;;;;;;;;;;;17.93;64.43;98604.66;2076041;28;19925;-75
2022/12/24 03:01:24;;;;;;;;;;;;;;;17.92;64.64;98611.06;2077149;28;19920;-75
2022/12/24 03:02:31;;;;;;;;;;;;;;;17.88;64.79;98607.09;2072458;28;19935;-75
2022/12/24 03:03:38;;;;;;;;;;;;;;;17.88;64.65;98595.53;2075763;28;20321;-76
2022/12/24 03:04:45;;;;;;;;;;;;;;;17.88;64.76;98601.72;2078875;28;21035;-75
2022/12/24 03:05:48;;;;;;;;;;;;;;;17.87;64.70;98597.41;2074227;28;20305;-75
2022/12/24 03:06:52;;;;;;;;;;;;;;;17.88;64.72;98592.84;2078474;28;19956;-75
2022/12/24 03:07:56;;;;;;;;;;;;;;;17.87;64.68;98597.41;2080031;28;19928;-75
2022/12/24 03:09:01;;;;;;;;;;;;;;;17.85;64.83;98583.34;2074717;28;19981;-75
2022/12/24 03:10:08;;;;;;;;;;;;;;;17.86;64.75;98595.75;2079746;28;19962;-75
2022/12/24 03:11:10;;;;;;;;;;;;;;;17.85;64.80;98599.44;2078976;28;20571;-76
2022/12/24 03:12:14;;;;;;;;;;;;;;;17.85;64.54;98596.75;2078473;28;20282;-75
2022/12/24 03:13:17;;;;;;;;;;;;;;;17.84;64.67;98598.63;2080509;28;19935;-75
2022/12/24 03:14:18;;;;;;;;;;;;;;;17.84;64.72;98605.84;2079213;28;19929;-75
2022/12/24 03:15:22;;;;;;;;;;;;;;;17.85;64.80;98604.81;2073397;28;19920;-75
2022/12/24 03:16:25;;;;;;;;;;;;;;;17.84;64.85;98611.22;2075807;28;19936;-75
2022/12/24 03:17:27;;;;;;;;;;;;;;;17.84;64.57;98604.00;2076529;28;19928;-75
2022/12/24 03:18:28;;;;;;;;;;;;;;;17.84;64.63;98603.16;2079212;28;19925;-75
2022/12/24 03:19:30;;;;;;;;;;;;;;;17.83;64.50;98602.34;2080301;28;20992;-75
2022/12/24 03:20:33;;;;;;;;;;;;;;;17.83;64.83;98607.72;2074181;28;19932;-75
2022/12/24 03:21:36;;;;;;;;;;;;;;;17.83;64.53;98601.53;2076434;28;19955;-76
2022/12/24 03:22:37;;;;;;;;;;;;;;;17.81;64.67;98598.19;2078750;28;19928;-75
2022/12/24 03:23:39;;;;;;;;;;;;;;;17.81;64.81;98603.56;2074106;28;20399;-75
2022/12/24 03:24:39;;;;;;;;;;;;;;;17.80;64.74;98604.56;2073931;28;19924;-75
2022/12/24 03:25:42;;;;;;;;;;;;;;;17.81;64.63;98603.56;2083216;28;19933;-75
2022/12/24 03:26:43;;;;;;;;;;;;;;;17.78;64.87;98602.09;2078803;28;19931;-74
2022/12/24 03:27:45;;;;;;;;;;;;;;;17.80;64.63;98607.25;2076933;28;19956;-75
2022/12/24 03:28:47;;;;;;;;;;;;;;;17.78;64.59;98603.94;2075681;28;20530;-75
2022/12/24 03:29:48;;;;;;;;;;;;;;;17.78;64.74;98609.31;2076550;28;19929;-75
2022/12/24 03:30:49;;;;;;;;;;;;;;;17.79;64.60;98610.97;2080525;28;19935;-76
2022/12/24 03:31:53;;;;;;;;;;;;;;;17.77;64.96;98608.44;2073503;28;19966;-75
2022/12/24 03:32:53;;;;;;;;;;;;;;;17.77;64.70;98610.31;2077172;28;19921;-75
2022/12/24 03:33:55;;;;;;;;;;;;;;;17.76;64.59;98609.50;2078329;28;19955;-75
2022/12/24 03:34:55;;;;;;;;;;;;;;;17.76;64.88;98622.06;2073015;28;19951;-75
2022/12/24 03:35:57;;;;;;;;;;;;;;;17.75;64.71;98620.44;2073939;28;19929;-75
2022/12/24 03:36:58;;;;;;;;;;;;;;;17.77;64.64;98626.41;2078097;28;20004;-75
2022/12/24 03:37:59;;;;;;;;;;;;;;;17.76;64.53;98638.19;2082506;28;19927;-75
2022/12/24 03:39:00;;;;;;;;;;;;;;;17.76;64.84;98648.91;2079032;28;19932;-75
2022/12/24 03:40:01;;;;;;;;;;;;;;;17.74;64.89;98643.72;2077742;28;19924;-75
2022/12/24 03:41:02;;;;;;;;;;;;;;;17.76;64.49;98641.69;2077113;28;19980;-75
2022/12/24 03:42:04;;;;;;;;;;;;;;;17.73;64.88;98646.63;2079166;28;19925;-75
2022/12/24 03:43:04;;;;;;;;;;;;;;;17.74;64.70;98648.25;2075194;28;19925;-75
2022/12/24 03:44:06;;;;;;;;;;;;;;;17.73;64.69;98643.94;2078018;28;20324;-75
2022/12/24 03:45:07;;;;;;;;;;;;;;;17.73;64.64;98644.75;2076489;28;19928;-75
2022/12/24 03:46:08;;;;;;;;;;;;;;;17.73;64.75;98638.56;2071394;28;19925;-75
2022/12/24 03:47:10;;;;;;;;;;;;;;;17.73;64.97;98644.75;2081850;28;19921;-76
2022/12/24 03:48:11;;;;;;;;;;;;;;;17.74;64.52;98642.91;2082439;28;19935;-75
2022/12/24 03:49:12;;;;;;;;;;;;;;;17.73;64.84;98638.56;2080157;28;20456;-75
2022/12/24 03:50:13;;;;;;;;;;;;;;;17.71;64.67;98646.81;2080534;28;19928;-75
2022/12/24 03:51:16;;;;;;;;;;;;;;;17.71;64.83;98654.03;2080605;28;19921;-75
2022/12/24 03:52:17;;;;;;;;;;;;;;;17.71;64.70;98654.84;2080882;28;20003;-76
2022/12/24 03:53:18;;;;;;;;;;;;;;;17.70;64.99;98657.75;2076824;28;20531;-75
2022/12/24 03:54:19;;;;;;;;;;;;;;;17.70;64.71;98660.44;2078591;28;20018;-75
2022/12/24 03:55:19;;;;;;;;;;;;;;;17.71;64.77;98656.72;2077535;28;19936;-75
2022/12/24 03:56:21;;;;;;;;;;;;;;;17.69;64.89;98648.88;2075528;28;19929;-76
2022/12/24 03:57:22;;;;;;;;;;;;;;;17.68;64.90;98649.88;2072384;28;20457;-75
2022/12/24 03:58:23;;;;;;;;;;;;;;;17.69;64.62;98643.50;2077021;28;19925;-75
2022/12/24 03:59:24;;;;;;;;;;;;;;;17.68;65.02;98632.97;2076299;28;19956;-75
2022/12/24 04:00:25;;;;;;;;;;;;;;;17.67;64.94;98628.63;2074570;28;19933;-75
2022/12/24 04:01:26;;;;;;;;;;;;;;;17.68;64.82;98628.44;2078366;28;19924;-76
2022/12/24 04:02:29;;;;;;;;;;;;;;;17.70;64.61;98625.56;2074553;28;19928;-75
2022/12/24 04:03:29;;;;;;;;;;;;;;;17.66;64.77;98630.47;2079629;28;19969;-75
2022/12/24 04:04:32;;;;;;;;;;;;;;;17.65;64.96;98624.28;2077634;28;19970;-75
2022/12/24 04:05:32;;;;;;;;;;;;;;;17.65;64.79;98621.59;2068140;28;19921;-75
2022/12/24 04:06:34;;;;;;;;;;;;;;;17.66;64.78;98617.06;2074810;28;20523;-75
2022/12/24 04:07:34;;;;;;;;;;;;;;;17.64;64.83;98614.59;2082334;28;20851;-75
2022/12/24 04:08:36;;;;;;;;;;;;;;;17.64;64.96;98609.22;2072148;28;19977;-75
2022/12/24 04:09:37;;;;;;;;;;;;;;;17.64;64.77;98603.84;2073875;28;19924;-76
2022/12/24 04:10:39;;;;;;;;;;;;;;;17.65;64.72;98608.19;2080230;28;19925;-75
2022/12/24 04:11:39;;;;;;;;;;;;;;;17.65;64.75;98615.41;2077608;28;19921;-75
2022/12/24 04:12:41;;;;;;;;;;;;;;;17.65;64.81;98610.88;2076544;28;19920;-75
2022/12/24 04:13:42;;;;;;;;;;;;;;;17.66;64.87;98630.47;2081936;28;19978;-76
2022/12/24 04:14:43;;;;;;;;;;;;;;;17.65;64.79;98635.00;2077925;28;19920;-75
2022/12/24 04:15:43;;;;;;;;;;;;;;;17.62;64.73;98638.09;2080801;28;19924;-75
2022/12/24 04:16:45;;;;;;;;;;;;;;;17.62;64.87;98635.41;2080733;28;20396;-75
2022/12/24 04:17:47;;;;;;;;;;;;;;;17.62;64.79;98645.31;2083171;28;19921;-75
2022/12/24 04:18:48;;;;;;;;;;;;;;;17.63;64.76;98647.81;2076803;28;19925;-75
2022/12/24 04:19:49;;;;;;;;;;;;;;;17.62;64.73;98648.81;2072011;28;19921;-75
2022/12/24 04:20:50;;;;;;;;;;;;;;;17.62;64.79;98645.31;2081822;28;19952;-75
2022/12/24 04:21:51;;;;;;;;;;;;;;;17.64;64.70;98657.50;2078859;28;19928;-75
2022/12/24 04:22:53;;;;;;;;;;;;;;;17.62;65.00;98659.53;2076725;28;20273;-75
2022/12/24 04:23:53;;;;;;;;;;;;;;;17.62;64.96;98664.91;2081588;28;19993;-75
2022/12/24 04:24:55;;;;;;;;;;;;;;;17.62;65.11;98664.09;2080486;28;19928;-75
2022/12/24 04:25:55;;;;;;;;;;;;;;;17.60;65.10;98660.75;2076179;28;20607;-75
2022/12/24 04:26:57;;;;;;;;;;;;;;;17.59;64.76;98668.00;2077888;28;19931;-75
2022/12/24 04:27:57;;;;;;;;;;;;;;;17.59;64.79;98670.66;2074552;28;19924;-75
2022/12/24 04:28:59;;;;;;;;;;;;;;;17.60;64.74;98674.19;2078060;28;19967;-76
2022/12/24 04:29:59;;;;;;;;;;;;;;;17.60;64.81;98677.69;2071694;28;20670;-75
2022/12/24 04:31:01;;;;;;;;;;;;;;;17.60;64.74;98676.84;2079276;28;19924;-75
2022/12/24 04:32:02;;;;;;;;;;;;;;;17.58;65.08;98674.38;2074465;28;20402;-75
2022/12/24 04:33:05;;;;;;;;;;;;;;;17.57;64.80;98667.34;2075412;28;19925;-75
2022/12/24 04:34:06;;;;;;;;;;;;;;;17.57;64.89;98651.25;2075634;28;19924;-75
2022/12/24 04:35:08;;;;;;;;;;;;;;;17.56;64.84;98638.06;2077673;28;19924;-74
2022/12/24 04:36:10;;;;;;;;;;;;;;;17.59;64.84;98617.03;2072295;28;19947;-75
2022/12/24 04:37:12;;;;;;;;;;;;;;;17.61;64.56;98609.63;2073892;28;20429;-75
2022/12/24 04:38:13;;;;;;;;;;;;;;;17.69;64.67;98611.31;2073419;28;20342;-75
2022/12/24 04:39:14;;;;;;;;;;;;;;;17.75;64.47;98615.06;2075640;28;19927;-75
2022/12/24 04:40:15;;;;;;;;;;;;;;;17.80;64.42;98623.34;2075752;28;20054;-75
2022/12/24 04:41:17;;;;;;;;;;;;;;;17.88;64.03;98631.25;2076116;28;19936;-75
2022/12/24 04:42:18;;;;;;;;;;;;;;;17.95;63.99;98642.84;2077667;28;19921;-75
2022/12/24 04:43:20;;;;;;;;;;;;;;;18.01;64.02;98636.69;2078417;28;20404;-75
2022/12/24 04:44:20;;;;;;;;;;;;;;;18.05;63.58;98637.09;2075528;28;24247;-75
2022/12/24 04:45:22;;;;;;;;;;;;;;;18.13;63.92;98638.78;2079860;28;20009;-75
2022/12/24 04:46:23;;;;;;;;;;;;;;;18.16;63.64;98644.56;2081393;28;19935;-75
2022/12/24 04:47:25;;;;;;;;;;;;;;;18.19;63.66;98643.34;2078815;28;19963;-75
2022/12/24 04:48:27;;;;;;;;;;;;;;;18.24;63.50;98644.41;2073557;28;19932;-75
2022/12/24 04:49:28;;;;;;;;;;;;;;;18.26;63.59;98641.53;2079165;28;20287;-75
2022/12/24 04:50:29;;;;;;;;;;;;;;;18.30;63.54;98637.41;2076705;28;19928;-75
2022/12/24 04:51:30;;;;;;;;;;;;;;;18.33;63.42;98646.91;2080762;28;19924;-75
2022/12/24 04:52:31;;;;;;;;;;;;;;;18.34;63.62;98649.41;2079630;28;19924;-75
2022/12/24 04:53:32;;;;;;;;;;;;;;;18.35;63.62;98653.75;2076544;28;19984;-75
2022/12/24 04:54:33;;;;;;;;;;;;;;;18.38;63.51;98656.03;2075448;28;19928;-76
2022/12/24 04:55:34;;;;;;;;;;;;;;;18.43;63.26;98658.13;2073409;28;19924;-75
2022/12/24 04:56:35;;;;;;;;;;;;;;;18.46;63.04;98666.59;2073484;28;19932;-75
2022/12/24 04:57:37;;;;;;;;;;;;;;;18.46;63.08;98666.59;2076257;28;19956;-75
2022/12/24 04:58:37;;;;;;;;;;;;;;;18.49;63.33;98663.50;2077347;28;19925;-75
2022/12/24 04:59:39;;;;;;;;;;;;;;;18.50;63.40;98665.16;2077072;28;19927;-76
2022/12/24 05:00:40;;;;;;;;;;;;;;;18.51;63.36;98660.63;2075578;28;19982;-75
2022/12/24 05:01:41;;;;;;;;;;;;;;;18.54;63.44;98657.53;2073901;28;19933;-75
2022/12/24 05:02:42;;;;;;;;;;;;;;;18.54;63.58;98642.22;2076751;28;20385;-75
2022/12/24 05:03:45;;;;;;;;;;;;;;;18.57;63.35;98634.81;2079063;28;19924;-75
2022/12/24 05:04:46;;;;;;;;;;;;;;;18.59;63.18;98635.44;2072323;28;19920;-75
2022/12/24 05:05:47;;;;;;;;;;;;;;;18.61;63.24;98633.34;2077886;28;19925;-75
2022/12/24 05:06:48;;;;;;;;;;;;;;;18.62;63.30;98632.34;2078743;28;19932;-75
2022/12/24 05:07:49;;;;;;;;;;;;;;;18.64;63.17;98635.66;2078334;28;20538;-75
2022/12/24 05:08:52;;;;;;;;;;;;;;;18.66;62.99;98637.09;2071589;28;19924;-75
2022/12/24 05:09:54;;;;;;;;;;;;;;;18.67;63.47;98628.00;2076631;28;19932;-75
2022/12/24 05:10:55;;;;;;;;;;;;;;;18.67;63.51;98624.50;2080714;28;19921;-75
2022/12/24 05:11:56;;;;;;;;;;;;;;;18.68;62.95;98631.53;2077958;28;19927;-75
2022/12/24 05:12:57;;;;;;;;;;;;;;;18.70;63.26;98632.16;2073126;28;19929;-75
2022/12/24 05:13:58;;;;;;;;;;;;;;;18.72;63.15;98632.75;2073339;28;19962;-75
2022/12/24 05:14:59;;;;;;;;;;;;;;;18.73;62.93;98634.44;2078202;28;19924;-75
2022/12/24 05:16:01;;;;;;;;;;;;;;;18.77;63.40;98634.88;2082149;28;19970;-75
2022/12/24 05:17:01;;;;;;;;;;;;;;;18.80;63.21;98632.59;2072883;28;19928;-75
2022/12/24 05:18:03;;;;;;;;;;;;;;;18.80;63.39;98632.59;2073301;28;20006;-75
2022/12/24 05:19:05;;;;;;;;;;;;;;;18.83;62.86;98642.94;2074725;28;19920;-75
2022/12/24 05:20:07;;;;;;;;;;;;;;;18.91;62.86;98649.97;2079215;28;20377;-75
2022/12/24 05:21:08;;;;;;;;;;;;;;;18.90;62.95;98651.03;2073761;28;19982;-75
2022/12/24 05:26:22;;;;;;;;;;;;;;;18.98;63.12;98643.59;2080719;28;20469;-75
2022/12/24 05:27:22;;;;;;;;;;;;;;;19.01;62.90;98636.16;2079343;28;19920;-75
2022/12/24 05:28:24;;;;;;;;;;;;;;;19.01;62.74;98631.59;2076591;28;19935;-76
2022/12/24 05:29:26;;;;;;;;;;;;;;;19.03;62.96;98636.75;2076420;28;20294;-76
2022/12/24 05:30:26;;;;;;;;;;;;;;;19.04;62.87;98639.25;2073236;28;19925;-75
2022/12/24 05:31:29;;;;;;;;;;;;;;;19.07;63.02;98638.81;2077468;28;21140;-75
2022/12/24 05:32:29;;;;;;;;;;;;;;;19.07;62.81;98636.13;2076380;28;19958;-75